sensor_id;sensor_type;location;lat;lon;timestamp;temperature;humidity
12907;DHT22;6521;50.498;8.474;2023-05-07T00:01:46;13.95;86.75
12907;DHT22;6521;50.498;8.474;2023-05-07T00:04:17;13.94;86.74
12907;DHT22;6521;50.498;8.474;2023-05-07T00:06:47;13.95;86.83
12907;DHT22;6521;50.498;8.474;2023-05-07T00:09:18;13.97;86.90
12907;DHT22;6521;50.498;8.474;2023-05-07T00:11:49;13.92;86.79
12907;DHT22;6521;50.498;8.474;2023-05-07T00:14:20;13.91;86.80
12907;DHT22;6521;50.498;8.474;2023-05-07T00:16:51;13.94;86.83
12907;DHT22;6521;50.498;8.474;2023-05-07T00:19:21;13.91;86.94
12907;DHT22;6521;50.498;8.474;2023-05-07T00:21:52;13.92;87.00
12907;DHT22;6521;50.498;8.474;2023-05-07T00:24:27;13.89;86.88
12907;DHT22;6521;50.498;8.474;2023-05-07T00:26:57;13.89;86.97
12907;DHT22;6521;50.498;8.474;2023-05-07T00:29:29;13.89;87.04
12907;DHT22;6521;50.498;8.474;2023-05-07T00:31:59;13.92;87.02
12907;DHT22;6521;50.498;8.474;2023-05-07T00:34:32;13.89;87.00
12907;DHT22;6521;50.498;8.474;2023-05-07T00:37:05;13.91;86.90
12907;DHT22;6521;50.498;8.474;2023-05-07T00:39:37;13.86;86.96
12907;DHT22;6521;50.498;8.474;2023-05-07T00:42:08;13.86;87.09
12907;DHT22;6521;50.498;8.474;2023-05-07T00:44:39;13.88;87.12
12907;DHT22;6521;50.498;8.474;2023-05-07T00:47:11;13.89;87.08
12907;DHT22;6521;50.498;8.474;2023-05-07T00:49:43;13.91;87.13
12907;DHT22;6521;50.498;8.474;2023-05-07T00:52:15;13.86;87.07
12907;DHT22;6521;50.498;8.474;2023-05-07T00:54:47;13.83;87.01
12907;DHT22;6521;50.498;8.474;2023-05-07T00:57:19;13.88;86.98
12907;DHT22;6521;50.498;8.474;2023-05-07T00:59:52;13.86;87.07
12907;DHT22;6521;50.498;8.474;2023-05-07T01:02:22;13.85;87.36
12907;DHT22;6521;50.498;8.474;2023-05-07T01:04:55;13.86;87.35
12907;DHT22;6521;50.498;8.474;2023-05-07T01:07:26;13.83;87.29
12907;DHT22;6521;50.498;8.474;2023-05-07T01:09:58;13.82;87.21
12907;DHT22;6521;50.498;8.474;2023-05-07T01:12:29;13.83;87.25
12907;DHT22;6521;50.498;8.474;2023-05-07T01:15:02;13.82;87.31
12907;DHT22;6521;50.498;8.474;2023-05-07T01:17:40;13.79;87.25
12907;DHT22;6521;50.498;8.474;2023-05-07T01:20:18;13.81;87.31
12907;DHT22;6521;50.498;8.474;2023-05-07T01:22:50;13.77;87.34
12907;DHT22;6521;50.498;8.474;2023-05-07T01:25:21;13.75;87.37
12907;DHT22;6521;50.498;8.474;2023-05-07T01:27:56;13.75;87.42
12907;DHT22;6521;50.498;8.474;2023-05-07T01:30:32;13.72;87.22
12907;DHT22;6521;50.498;8.474;2023-05-07T01:33:09;13.68;87.41
12907;DHT22;6521;50.498;8.474;2023-05-07T01:35:45;13.71;87.32
12907;DHT22;6521;50.498;8.474;2023-05-07T01:38:16;13.71;87.29
12907;DHT22;6521;50.498;8.474;2023-05-07T01:40:48;13.70;87.44
12907;DHT22;6521;50.498;8.474;2023-05-07T01:43:19;13.70;87.47
12907;DHT22;6521;50.498;8.474;2023-05-07T01:45:50;13.70;87.51
12907;DHT22;6521;50.498;8.474;2023-05-07T01:48:22;13.65;87.64
12907;DHT22;6521;50.498;8.474;2023-05-07T01:50:53;13.62;87.60
12907;DHT22;6521;50.498;8.474;2023-05-07T01:53:34;13.64;87.67
12907;DHT22;6521;50.498;8.474;2023-05-07T01:56:07;13.64;87.61
12907;DHT22;6521;50.498;8.474;2023-05-07T01:58:40;13.62;87.64
12907;DHT22;6521;50.498;8.474;2023-05-07T02:01:13;13.67;87.70
12907;DHT22;6521;50.498;8.474;2023-05-07T02:03:44;13.68;87.86
12907;DHT22;6521;50.498;8.474;2023-05-07T02:06:23;13.71;87.64
12907;DHT22;6521;50.498;8.474;2023-05-07T02:08:56;13.71;87.82
12907;DHT22;6521;50.498;8.474;2023-05-07T02:11:27;13.65;87.91
12907;DHT22;6521;50.498;8.474;2023-05-07T02:14:02;13.65;88.14
12907;DHT22;6521;50.498;8.474;2023-05-07T02:16:42;13.62;88.31
12907;DHT22;6521;50.498;8.474;2023-05-07T02:19:14;13.62;88.44
12907;DHT22;6521;50.498;8.474;2023-05-07T02:21:45;13.67;88.38
12907;DHT22;6521;50.498;8.474;2023-05-07T02:24:16;13.62;88.50
12907;DHT22;6521;50.498;8.474;2023-05-07T02:26:46;13.62;88.40
12907;DHT22;6521;50.498;8.474;2023-05-07T02:29:17;13.60;88.43
12907;DHT22;6521;50.498;8.474;2023-05-07T02:31:48;13.58;88.59
12907;DHT22;6521;50.498;8.474;2023-05-07T02:34:21;13.61;88.62
12907;DHT22;6521;50.498;8.474;2023-05-07T02:36:52;13.62;88.69
12907;DHT22;6521;50.498;8.474;2023-05-07T02:39:26;13.65;88.53
12907;DHT22;6521;50.498;8.474;2023-05-07T02:41:57;13.61;88.65
12907;DHT22;6521;50.498;8.474;2023-05-07T02:44:28;13.60;88.85
12907;DHT22;6521;50.498;8.474;2023-05-07T02:47:03;13.57;88.99
12907;DHT22;6521;50.498;8.474;2023-05-07T02:49:35;13.58;89.06
12907;DHT22;6521;50.498;8.474;2023-05-07T02:52:06;13.58;89.09
12907;DHT22;6521;50.498;8.474;2023-05-07T02:54:37;13.58;89.19
12907;DHT22;6521;50.498;8.474;2023-05-07T02:57:08;13.57;89.16
12907;DHT22;6521;50.498;8.474;2023-05-07T02:59:38;13.54;89.13
12907;DHT22;6521;50.498;8.474;2023-05-07T03:02:09;13.53;89.20
12907;DHT22;6521;50.498;8.474;2023-05-07T03:04:40;13.54;89.25
12907;DHT22;6521;50.498;8.474;2023-05-07T03:07:12;13.54;89.13
12907;DHT22;6521;50.498;8.474;2023-05-07T03:09:43;13.55;89.20
12907;DHT22;6521;50.498;8.474;2023-05-07T03:12:13;13.53;89.23
12907;DHT22;6521;50.498;8.474;2023-05-07T03:14:44;13.51;89.30
12907;DHT22;6521;50.498;8.474;2023-05-07T03:17:15;13.46;89.47
12907;DHT22;6521;50.498;8.474;2023-05-07T03:19:47;13.43;89.38
12907;DHT22;6521;50.498;8.474;2023-05-07T03:22:18;13.47;89.39
12907;DHT22;6521;50.498;8.474;2023-05-07T03:24:49;13.46;89.52
12907;DHT22;6521;50.498;8.474;2023-05-07T03:27:19;13.43;89.49
12907;DHT22;6521;50.498;8.474;2023-05-07T03:29:51;13.37;89.47
12907;DHT22;6521;50.498;8.474;2023-05-07T03:32:22;13.36;89.45
12907;DHT22;6521;50.498;8.474;2023-05-07T03:34:54;13.33;89.43
12907;DHT22;6521;50.498;8.474;2023-05-07T03:37:25;13.36;89.49
12907;DHT22;6521;50.498;8.474;2023-05-07T03:40:22;13.33;89.49
12907;DHT22;6521;50.498;8.474;2023-05-07T03:42:57;13.34;89.58
12907;DHT22;6521;50.498;8.474;2023-05-07T03:45:31;13.34;89.63
12907;DHT22;6521;50.498;8.474;2023-05-07T03:48:19;13.31;89.61
12907;DHT22;6521;50.498;8.474;2023-05-07T03:50:51;13.27;89.62
12907;DHT22;6521;50.498;8.474;2023-05-07T03:53:23;13.27;89.85
12907;DHT22;6521;50.498;8.474;2023-05-07T03:55:55;13.27;89.90
12907;DHT22;6521;50.498;8.474;2023-05-07T03:58:26;13.28;89.97
12907;DHT22;6521;50.498;8.474;2023-05-07T04:01:00;13.31;89.93
12907;DHT22;6521;50.498;8.474;2023-05-07T04:03:33;13.33;89.88
12907;DHT22;6521;50.498;8.474;2023-05-07T04:06:04;13.30;89.82
12907;DHT22;6521;50.498;8.474;2023-05-07T04:08:38;13.30;89.73
12907;DHT22;6521;50.498;8.474;2023-05-07T04:11:10;13.27;89.69
12907;DHT22;6521;50.498;8.474;2023-05-07T04:13:42;13.26;89.82
12907;DHT22;6521;50.498;8.474;2023-05-07T04:16:14;13.24;89.86
12907;DHT22;6521;50.498;8.474;2023-05-07T04:18:44;13.27;89.96
12907;DHT22;6521;50.498;8.474;2023-05-07T04:21:17;13.30;90.07
12907;DHT22;6521;50.498;8.474;2023-05-07T04:23:48;13.27;90.05
12907;DHT22;6521;50.498;8.474;2023-05-07T04:26:19;13.28;90.02
12907;DHT22;6521;50.498;8.474;2023-05-07T04:28:51;13.28;90.04
12907;DHT22;6521;50.498;8.474;2023-05-07T04:31:25;13.26;90.00
12907;DHT22;6521;50.498;8.474;2023-05-07T04:34:12;13.28;89.94
12907;DHT22;6521;50.498;8.474;2023-05-07T04:36:45;13.30;89.95
12907;DHT22;6521;50.498;8.474;2023-05-07T04:39:18;13.28;89.93
12907;DHT22;6521;50.498;8.474;2023-05-07T04:41:51;13.28;89.97
12907;DHT22;6521;50.498;8.474;2023-05-07T04:44:22;13.28;89.84
12907;DHT22;6521;50.498;8.474;2023-05-07T04:46:53;13.27;89.85
12907;DHT22;6521;50.498;8.474;2023-05-07T04:49:24;13.30;89.84
12907;DHT22;6521;50.498;8.474;2023-05-07T04:51:57;13.30;89.86
12907;DHT22;6521;50.498;8.474;2023-05-07T04:54:28;13.31;89.88
12907;DHT22;6521;50.498;8.474;2023-05-07T04:56:59;13.34;89.87
12907;DHT22;6521;50.498;8.474;2023-05-07T04:59:30;13.33;89.85
12907;DHT22;6521;50.498;8.474;2023-05-07T05:02:01;13.37;89.85
12907;DHT22;6521;50.498;8.474;2023-05-07T05:04:32;13.37;89.88
12907;DHT22;6521;50.498;8.474;2023-05-07T05:07:03;13.40;89.88
12907;DHT22;6521;50.498;8.474;2023-05-07T05:09:35;13.46;89.82
12907;DHT22;6521;50.498;8.474;2023-05-07T05:12:06;13.46;89.78
12907;DHT22;6521;50.498;8.474;2023-05-07T05:14:38;13.51;89.77
12907;DHT22;6521;50.498;8.474;2023-05-07T05:17:09;13.54;89.71
12907;DHT22;6521;50.498;8.474;2023-05-07T05:19:41;13.55;89.65
12907;DHT22;6521;50.498;8.474;2023-05-07T05:22:11;13.55;89.63
12907;DHT22;6521;50.498;8.474;2023-05-07T05:24:42;13.58;89.65
12907;DHT22;6521;50.498;8.474;2023-05-07T05:27:13;13.61;89.50
12907;DHT22;6521;50.498;8.474;2023-05-07T05:29:44;13.62;89.43
12907;DHT22;6521;50.498;8.474;2023-05-07T05:32:15;13.64;89.53
12907;DHT22;6521;50.498;8.474;2023-05-07T05:34:47;13.67;89.55
12907;DHT22;6521;50.498;8.474;2023-05-07T05:37:18;13.71;89.57
12907;DHT22;6521;50.498;8.474;2023-05-07T05:39:49;13.74;89.43
12907;DHT22;6521;50.498;8.474;2023-05-07T05:42:20;13.75;89.38
12907;DHT22;6521;50.498;8.474;2023-05-07T05:44:52;13.75;89.37
12907;DHT22;6521;50.498;8.474;2023-05-07T05:47:23;13.82;89.27
12907;DHT22;6521;50.498;8.474;2023-05-07T05:49:57;13.79;89.18
12907;DHT22;6521;50.498;8.474;2023-05-07T05:52:28;13.85;89.31
12907;DHT22;6521;50.498;8.474;2023-05-07T05:55:00;13.85;89.24
12907;DHT22;6521;50.498;8.474;2023-05-07T05:57:31;13.86;89.15
12907;DHT22;6521;50.498;8.474;2023-05-07T06:00:03;13.91;88.98
12907;DHT22;6521;50.498;8.474;2023-05-07T06:02:37;13.89;88.97
12907;DHT22;6521;50.498;8.474;2023-05-07T06:05:09;13.94;88.94
12907;DHT22;6521;50.498;8.474;2023-05-07T06:07:43;13.95;88.78
12907;DHT22;6521;50.498;8.474;2023-05-07T06:10:14;13.99;88.78
12907;DHT22;6521;50.498;8.474;2023-05-07T06:12:45;14.02;88.69
12907;DHT22;6521;50.498;8.474;2023-05-07T06:15:17;14.06;88.82
12907;DHT22;6521;50.498;8.474;2023-05-07T06:17:49;14.13;88.76
12907;DHT22;6521;50.498;8.474;2023-05-07T06:20:20;14.16;88.23
12907;DHT22;6521;50.498;8.474;2023-05-07T06:22:50;14.19;88.01
12907;DHT22;6521;50.498;8.474;2023-05-07T06:25:21;14.19;87.89
12907;DHT22;6521;50.498;8.474;2023-05-07T06:27:58;14.20;87.53
12907;DHT22;6521;50.498;8.474;2023-05-07T06:30:48;14.19;87.33
12907;DHT22;6521;50.498;8.474;2023-05-07T06:33:22;14.23;87.46
12907;DHT22;6521;50.498;8.474;2023-05-07T06:35:52;14.28;87.43
12907;DHT22;6521;50.498;8.474;2023-05-07T06:38:24;14.32;87.17
12907;DHT22;6521;50.498;8.474;2023-05-07T06:40:54;14.36;86.84
12907;DHT22;6521;50.498;8.474;2023-05-07T06:43:27;14.40;86.66
12907;DHT22;6521;50.498;8.474;2023-05-07T06:46:01;14.39;86.58
12907;DHT22;6521;50.498;8.474;2023-05-07T06:48:31;14.41;86.30
12907;DHT22;6521;50.498;8.474;2023-05-07T06:51:06;14.51;86.61
12907;DHT22;6521;50.498;8.474;2023-05-07T06:53:37;14.59;86.62
12907;DHT22;6521;50.498;8.474;2023-05-07T06:56:15;14.63;86.40
12907;DHT22;6521;50.498;8.474;2023-05-07T06:58:46;14.70;86.28
12907;DHT22;6521;50.498;8.474;2023-05-07T07:01:17;14.78;86.30
12907;DHT22;6521;50.498;8.474;2023-05-07T07:03:48;14.83;86.40
12907;DHT22;6521;50.498;8.474;2023-05-07T07:06:19;14.95;86.43
12907;DHT22;6521;50.498;8.474;2023-05-07T07:08:51;15.02;85.88
12907;DHT22;6521;50.498;8.474;2023-05-07T07:11:22;15.14;86.08
12907;DHT22;6521;50.498;8.474;2023-05-07T07:13:53;15.24;85.47
12907;DHT22;6521;50.498;8.474;2023-05-07T07:16:28;15.34;85.36
12907;DHT22;6521;50.498;8.474;2023-05-07T07:19:15;15.55;85.95
12907;DHT22;6521;50.498;8.474;2023-05-07T07:21:47;15.59;84.87
12907;DHT22;6521;50.498;8.474;2023-05-07T07:24:18;15.65;84.30
12907;DHT22;6521;50.498;8.474;2023-05-07T07:26:53;15.67;84.29
12907;DHT22;6521;50.498;8.474;2023-05-07T07:29:26;15.69;83.92
12907;DHT22;6521;50.498;8.474;2023-05-07T07:31:57;15.71;83.08
12907;DHT22;6521;50.498;8.474;2023-05-07T07:34:28;15.77;83.41
12907;DHT22;6521;50.498;8.474;2023-05-07T07:37:00;15.76;82.86
12907;DHT22;6521;50.498;8.474;2023-05-07T07:39:36;15.89;83.53
12907;DHT22;6521;50.498;8.474;2023-05-07T07:42:09;15.97;82.74
12907;DHT22;6521;50.498;8.474;2023-05-07T07:44:39;16.07;82.89
12907;DHT22;6521;50.498;8.474;2023-05-07T07:47:12;16.20;82.79
12907;DHT22;6521;50.498;8.474;2023-05-07T07:49:44;16.25;82.53
12907;DHT22;6521;50.498;8.474;2023-05-07T07:52:21;16.25;81.47
12907;DHT22;6521;50.498;8.474;2023-05-07T07:54:52;16.34;81.72
12907;DHT22;6521;50.498;8.474;2023-05-07T07:57:23;16.32;80.60
12907;DHT22;6521;50.498;8.474;2023-05-07T07:59:54;16.32;80.96
12907;DHT22;6521;50.498;8.474;2023-05-07T08:02:25;16.37;80.91
12907;DHT22;6521;50.498;8.474;2023-05-07T08:04:56;16.31;79.97
12907;DHT22;6521;50.498;8.474;2023-05-07T08:07:27;16.32;80.53
12907;DHT22;6521;50.498;8.474;2023-05-07T08:09:59;16.34;80.69
12907;DHT22;6521;50.498;8.474;2023-05-07T08:12:36;16.35;80.87
12907;DHT22;6521;50.498;8.474;2023-05-07T08:15:08;16.44;81.01
12907;DHT22;6521;50.498;8.474;2023-05-07T08:17:42;16.49;80.78
12907;DHT22;6521;50.498;8.474;2023-05-07T08:20:13;16.55;80.26
12907;DHT22;6521;50.498;8.474;2023-05-07T08:22:44;16.58;80.25
12907;DHT22;6521;50.498;8.474;2023-05-07T08:25:15;16.69;80.03
12907;DHT22;6521;50.498;8.474;2023-05-07T08:27:46;16.77;79.77
12907;DHT22;6521;50.498;8.474;2023-05-07T08:30:17;16.87;79.09
12907;DHT22;6521;50.498;8.474;2023-05-07T08:32:49;16.99;79.00
12907;DHT22;6521;50.498;8.474;2023-05-07T08:35:20;17.02;78.83
12907;DHT22;6521;50.498;8.474;2023-05-07T08:37:54;17.10;78.60
12907;DHT22;6521;50.498;8.474;2023-05-07T08:40:26;17.24;78.92
12907;DHT22;6521;50.498;8.474;2023-05-07T08:42:59;17.33;77.84
12907;DHT22;6521;50.498;8.474;2023-05-07T08:45:33;17.37;77.22
12907;DHT22;6521;50.498;8.474;2023-05-07T08:48:08;17.48;77.51
12907;DHT22;6521;50.498;8.474;2023-05-07T08:50:40;17.51;75.73
12907;DHT22;6521;50.498;8.474;2023-05-07T08:53:11;17.58;76.72
12907;DHT22;6521;50.498;8.474;2023-05-07T08:55:44;17.68;76.64
12907;DHT22;6521;50.498;8.474;2023-05-07T08:58:15;17.71;75.86
12907;DHT22;6521;50.498;8.474;2023-05-07T09:00:46;17.81;76.26
12907;DHT22;6521;50.498;8.474;2023-05-07T09:03:19;17.84;76.37
12907;DHT22;6521;50.498;8.474;2023-05-07T09:05:53;17.96;75.83
12907;DHT22;6521;50.498;8.474;2023-05-07T09:08:28;18.14;76.00
12907;DHT22;6521;50.498;8.474;2023-05-07T09:11:03;18.13;74.70
12907;DHT22;6521;50.498;8.474;2023-05-07T09:13:34;18.22;75.59
12907;DHT22;6521;50.498;8.474;2023-05-07T09:16:11;18.30;74.19
12907;DHT22;6521;50.498;8.474;2023-05-07T09:18:43;18.30;74.17
12907;DHT22;6521;50.498;8.474;2023-05-07T09:21:18;18.36;73.61
12907;DHT22;6521;50.498;8.474;2023-05-07T09:23:53;18.47;74.49
12907;DHT22;6521;50.498;8.474;2023-05-07T09:26:45;18.71;74.14
12907;DHT22;6521;50.498;8.474;2023-05-07T09:29:18;19.12;73.27
12907;DHT22;6521;50.498;8.474;2023-05-07T09:31:49;19.46;73.79
12907;DHT22;6521;50.498;8.474;2023-05-07T09:34:22;19.79;70.09
12907;DHT22;6521;50.498;8.474;2023-05-07T09:36:53;20.16;70.07
12907;DHT22;6521;50.498;8.474;2023-05-07T09:39:25;20.22;69.04
12907;DHT22;6521;50.498;8.474;2023-05-07T09:41:56;20.42;69.22
12907;DHT22;6521;50.498;8.474;2023-05-07T09:45:02;20.64;67.40
12907;DHT22;6521;50.498;8.474;2023-05-07T09:47:46;20.41;66.22
12907;DHT22;6521;50.498;8.474;2023-05-07T09:50:19;20.49;67.61
12907;DHT22;6521;50.498;8.474;2023-05-07T09:52:50;20.68;66.85
12907;DHT22;6521;50.498;8.474;2023-05-07T09:55:22;20.97;66.87
12907;DHT22;6521;50.498;8.474;2023-05-07T09:57:53;21.07;64.01
12907;DHT22;6521;50.498;8.474;2023-05-07T10:00:26;21.31;65.05
12907;DHT22;6521;50.498;8.474;2023-05-07T10:03:06;21.61;62.44
12907;DHT22;6521;50.498;8.474;2023-05-07T10:05:46;21.78;63.92
12907;DHT22;6521;50.498;8.474;2023-05-07T10:08:18;21.96;63.39
12907;DHT22;6521;50.498;8.474;2023-05-07T10:10:52;22.19;62.41
12907;DHT22;6521;50.498;8.474;2023-05-07T10:13:26;22.19;61.39
12907;DHT22;6521;50.498;8.474;2023-05-07T10:16:00;22.05;61.16
12907;DHT22;6521;50.498;8.474;2023-05-07T10:18:36;22.16;61.97
12907;DHT22;6521;50.498;8.474;2023-05-07T10:21:19;22.46;61.47
12907;DHT22;6521;50.498;8.474;2023-05-07T10:24:07;22.63;60.51
12907;DHT22;6521;50.498;8.474;2023-05-07T10:26:47;22.81;58.09
12907;DHT22;6521;50.498;8.474;2023-05-07T10:34:48;23.90;56.07
12907;DHT22;6521;50.498;8.474;2023-05-07T10:37:22;24.25;56.93
12907;DHT22;6521;50.498;8.474;2023-05-07T10:39:54;24.44;56.11
12907;DHT22;6521;50.498;8.474;2023-05-07T10:42:25;24.41;52.14
12907;DHT22;6521;50.498;8.474;2023-05-07T10:45:16;24.32;55.60
12907;DHT22;6521;50.498;8.474;2023-05-07T10:48:09;24.29;55.38
12907;DHT22;6521;50.498;8.474;2023-05-07T10:50:41;24.27;54.51
12907;DHT22;6521;50.498;8.474;2023-05-07T10:55:50;23.87;56.08
12907;DHT22;6521;50.498;8.474;2023-05-07T10:58:26;23.92;55.94
12907;DHT22;6521;50.498;8.474;2023-05-07T11:01:02;24.00;55.10
12907;DHT22;6521;50.498;8.474;2023-05-07T11:04:14;23.93;55.11
12907;DHT22;6521;50.498;8.474;2023-05-07T11:15:11;24.66;54.13
12907;DHT22;6521;50.498;8.474;2023-05-07T11:17:57;24.90;52.60
12907;DHT22;6521;50.498;8.474;2023-05-07T11:20:53;25.03;51.51
12907;DHT22;6521;50.498;8.474;2023-05-07T11:26:40;25.47;51.36
12907;DHT22;6521;50.498;8.474;2023-05-07T11:29:17;25.48;48.96
12907;DHT22;6521;50.498;8.474;2023-05-07T11:31:53;25.55;50.13
12907;DHT22;6521;50.498;8.474;2023-05-07T11:34:26;25.20;49.72
12907;DHT22;6521;50.498;8.474;2023-05-07T11:36:59;24.79;51.07
12907;DHT22;6521;50.498;8.474;2023-05-07T11:39:50;24.59;51.60
12907;DHT22;6521;50.498;8.474;2023-05-07T11:42:33;24.61;52.33
12907;DHT22;6521;50.498;8.474;2023-05-07T11:45:06;24.82;53.40
12907;DHT22;6521;50.498;8.474;2023-05-07T11:47:37;25.12;52.11
12907;DHT22;6521;50.498;8.474;2023-05-07T11:50:08;25.16;51.52
12907;DHT22;6521;50.498;8.474;2023-05-07T11:52:38;24.97;51.45
12907;DHT22;6521;50.498;8.474;2023-05-07T11:55:09;25.00;52.12
12907;DHT22;6521;50.498;8.474;2023-05-07T11:57:42;24.96;50.09
12907;DHT22;6521;50.498;8.474;2023-05-07T12:00:15;24.75;50.45
12907;DHT22;6521;50.498;8.474;2023-05-07T12:02:46;24.45;51.78
12907;DHT22;6521;50.498;8.474;2023-05-07T12:05:17;24.11;52.39
12907;DHT22;6521;50.498;8.474;2023-05-07T12:07:48;23.97;54.47
12907;DHT22;6521;50.498;8.474;2023-05-07T12:10:20;24.14;54.02
12907;DHT22;6521;50.498;8.474;2023-05-07T12:12:50;24.14;53.66
12907;DHT22;6521;50.498;8.474;2023-05-07T12:15:24;24.01;54.30
12907;DHT22;6521;50.498;8.474;2023-05-07T12:17:55;24.04;53.73
12907;DHT22;6521;50.498;8.474;2023-05-07T12:20:25;24.56;53.22
12907;DHT22;6521;50.498;8.474;2023-05-07T12:22:56;25.10;52.24
12907;DHT22;6521;50.498;8.474;2023-05-07T12:25:31;25.47;49.75
12907;DHT22;6521;50.498;8.474;2023-05-07T12:28:03;25.47;49.75
12907;DHT22;6521;50.498;8.474;2023-05-07T12:30:38;25.68;49.70
12907;DHT22;6521;50.498;8.474;2023-05-07T12:33:10;25.44;49.22
12907;DHT22;6521;50.498;8.474;2023-05-07T12:35:42;25.38;49.46
12907;DHT22;6521;50.498;8.474;2023-05-07T12:38:15;25.36;49.71
12907;DHT22;6521;50.498;8.474;2023-05-07T12:40:53;24.86;49.93
12907;DHT22;6521;50.498;8.474;2023-05-07T12:43:25;24.72;52.73
12907;DHT22;6521;50.498;8.474;2023-05-07T12:45:58;24.52;52.01
12907;DHT22;6521;50.498;8.474;2023-05-07T12:48:30;24.34;51.21
12907;DHT22;6521;50.498;8.474;2023-05-07T12:51:01;24.10;51.77
12907;DHT22;6521;50.498;8.474;2023-05-07T12:53:32;23.87;52.22
12907;DHT22;6521;50.498;8.474;2023-05-07T12:56:05;23.67;52.83
12907;DHT22;6521;50.498;8.474;2023-05-07T12:58:36;23.46;53.92
12907;DHT22;6521;50.498;8.474;2023-05-07T13:01:08;23.21;53.50
12907;DHT22;6521;50.498;8.474;2023-05-07T13:03:39;23.14;54.06
12907;DHT22;6521;50.498;8.474;2023-05-07T13:06:10;23.14;54.47
12907;DHT22;6521;50.498;8.474;2023-05-07T13:08:42;23.04;53.24
12907;DHT22;6521;50.498;8.474;2023-05-07T13:11:13;23.21;54.82
12907;DHT22;6521;50.498;8.474;2023-05-07T13:13:44;23.37;53.90
12907;DHT22;6521;50.498;8.474;2023-05-07T13:16:15;23.46;53.23
12907;DHT22;6521;50.498;8.474;2023-05-07T13:18:45;23.42;53.26
12907;DHT22;6521;50.498;8.474;2023-05-07T13:21:16;23.48;53.71
12907;DHT22;6521;50.498;8.474;2023-05-07T13:23:47;23.70;52.89
12907;DHT22;6521;50.498;8.474;2023-05-07T13:26:18;23.96;52.54
12907;DHT22;6521;50.498;8.474;2023-05-07T13:28:48;24.08;51.94
12907;DHT22;6521;50.498;8.474;2023-05-07T13:31:19;24.18;51.49
12907;DHT22;6521;50.498;8.474;2023-05-07T13:33:51;24.35;53.46
12907;DHT22;6521;50.498;8.474;2023-05-07T13:36:23;24.71;50.61
12907;DHT22;6521;50.498;8.474;2023-05-07T13:38:53;25.02;49.66
12907;DHT22;6521;50.498;8.474;2023-05-07T13:41:24;25.36;49.23
12907;DHT22;6521;50.498;8.474;2023-05-07T13:43:55;25.53;49.08
12907;DHT22;6521;50.498;8.474;2023-05-07T13:46:26;25.65;48.95
12907;DHT22;6521;50.498;8.474;2023-05-07T13:48:57;25.74;48.19
12907;DHT22;6521;50.498;8.474;2023-05-07T13:51:28;25.81;47.33
12907;DHT22;6521;50.498;8.474;2023-05-07T13:53:58;25.48;47.47
12907;DHT22;6521;50.498;8.474;2023-05-07T13:56:29;25.13;48.64
12907;DHT22;6521;50.498;8.474;2023-05-07T13:59:01;24.83;49.59
12907;DHT22;6521;50.498;8.474;2023-05-07T14:01:32;24.65;49.59
12907;DHT22;6521;50.498;8.474;2023-05-07T14:04:03;24.47;50.21
12907;DHT22;6521;50.498;8.474;2023-05-07T14:06:34;24.18;51.21
12907;DHT22;6521;50.498;8.474;2023-05-07T14:09:05;24.08;51.23
12907;DHT22;6521;50.498;8.474;2023-05-07T14:11:35;23.94;51.52
12907;DHT22;6521;50.498;8.474;2023-05-07T14:14:06;23.89;51.65
12907;DHT22;6521;50.498;8.474;2023-05-07T14:16:37;23.83;52.09
12907;DHT22;6521;50.498;8.474;2023-05-07T14:19:08;23.86;52.49
12907;DHT22;6521;50.498;8.474;2023-05-07T14:21:39;23.70;51.35
12907;DHT22;6521;50.498;8.474;2023-05-07T14:24:12;23.66;51.05
12907;DHT22;6521;50.498;8.474;2023-05-07T14:26:43;23.63;50.56
12907;DHT22;6521;50.498;8.474;2023-05-07T14:29:15;23.81;50.35
12907;DHT22;6521;50.498;8.474;2023-05-07T14:31:49;24.31;51.05
12907;DHT22;6521;50.498;8.474;2023-05-07T14:34:19;24.76;49.04
12907;DHT22;6521;50.498;8.474;2023-05-07T14:36:50;24.97;47.54
12907;DHT22;6521;50.498;8.474;2023-05-07T14:39:22;25.22;48.21
12907;DHT22;6521;50.498;8.474;2023-05-07T14:41:53;25.47;46.94
12907;DHT22;6521;50.498;8.474;2023-05-07T14:44:25;25.40;47.08
12907;DHT22;6521;50.498;8.474;2023-05-07T14:46:56;25.16;47.46
12907;DHT22;6521;50.498;8.474;2023-05-07T14:49:26;25.03;47.84
12907;DHT22;6521;50.498;8.474;2023-05-07T14:51:57;24.85;46.63
12907;DHT22;6521;50.498;8.474;2023-05-07T14:54:30;24.69;48.70
12907;DHT22;6521;50.498;8.474;2023-05-07T14:57:01;24.55;48.31
12907;DHT22;6521;50.498;8.474;2023-05-07T14:59:32;24.41;48.87
12907;DHT22;6521;50.498;8.474;2023-05-07T15:02:03;24.13;49.23
12907;DHT22;6521;50.498;8.474;2023-05-07T15:04:35;23.97;49.61
12907;DHT22;6521;50.498;8.474;2023-05-07T15:07:06;23.77;49.24
12907;DHT22;6521;50.498;8.474;2023-05-07T15:09:42;23.71;49.61
12907;DHT22;6521;50.498;8.474;2023-05-07T15:12:13;23.59;50.31
12907;DHT22;6521;50.498;8.474;2023-05-07T15:14:44;23.42;49.14
12907;DHT22;6521;50.498;8.474;2023-05-07T15:17:15;23.29;50.48
12907;DHT22;6521;50.498;8.474;2023-05-07T15:19:46;23.33;50.95
12907;DHT22;6521;50.498;8.474;2023-05-07T15:22:17;23.37;49.86
12907;DHT22;6521;50.498;8.474;2023-05-07T15:24:47;23.28;50.07
12907;DHT22;6521;50.498;8.474;2023-05-07T15:27:18;23.14;51.52
12907;DHT22;6521;50.498;8.474;2023-05-07T15:29:49;23.12;51.89
12907;DHT22;6521;50.498;8.474;2023-05-07T15:32:19;23.05;52.87
12907;DHT22;6521;50.498;8.474;2023-05-07T15:34:50;22.91;51.07
12907;DHT22;6521;50.498;8.474;2023-05-07T15:37:21;22.75;51.85
12907;DHT22;6521;50.498;8.474;2023-05-07T15:39:51;22.68;52.88
12907;DHT22;6521;50.498;8.474;2023-05-07T15:42:22;22.63;52.64
12907;DHT22;6521;50.498;8.474;2023-05-07T15:44:53;22.51;54.02
12907;DHT22;6521;50.498;8.474;2023-05-07T15:47:24;22.40;54.69
12907;DHT22;6521;50.498;8.474;2023-05-07T15:49:55;22.24;54.76
12907;DHT22;6521;50.498;8.474;2023-05-07T15:52:26;22.08;54.88
12907;DHT22;6521;50.498;8.474;2023-05-07T15:54:58;22.02;55.12
12907;DHT22;6521;50.498;8.474;2023-05-07T15:57:28;21.92;56.05
12907;DHT22;6521;50.498;8.474;2023-05-07T15:59:59;21.81;56.11
12907;DHT22;6521;50.498;8.474;2023-05-07T16:02:30;21.74;56.48
12907;DHT22;6521;50.498;8.474;2023-05-07T16:05:02;21.75;57.19
12907;DHT22;6521;50.498;8.474;2023-05-07T16:07:33;21.66;57.22
12907;DHT22;6521;50.498;8.474;2023-05-07T16:10:05;21.62;57.36
12907;DHT22;6521;50.498;8.474;2023-05-07T16:12:37;21.65;57.98
12907;DHT22;6521;50.498;8.474;2023-05-07T16:15:08;21.58;58.22
12907;DHT22;6521;50.498;8.474;2023-05-07T16:17:39;21.53;58.15
12907;DHT22;6521;50.498;8.474;2023-05-07T16:20:10;21.45;58.31
12907;DHT22;6521;50.498;8.474;2023-05-07T16:22:42;21.43;58.59
12907;DHT22;6521;50.498;8.474;2023-05-07T16:25:13;21.44;59.17
12907;DHT22;6521;50.498;8.474;2023-05-07T16:27:44;21.38;59.26
12907;DHT22;6521;50.498;8.474;2023-05-07T16:30:15;21.27;59.74
12907;DHT22;6521;50.498;8.474;2023-05-07T16:32:46;21.20;60.75
12907;DHT22;6521;50.498;8.474;2023-05-07T16:35:16;21.10;60.63
12907;DHT22;6521;50.498;8.474;2023-05-07T16:37:47;21.02;61.16
12907;DHT22;6521;50.498;8.474;2023-05-07T16:40:18;20.96;61.54